Time;durP1;ratioP1;P1;durP2;ratioP2;P2;SDS_P1;SDS_P2;PMS_P1;PMS_P2;Temp;Humidity;BMP_temperature;BMP_pressure;BME280_temperature;BME280_humidity;BME280_pressure;Samples;Min_cycle;Max_cycle;Signal;HPM_P1;HPM_P2
2023/04/18 00:01:20;;;;;;;29.80;19.20;;;;;;;8.89;79.42;100893.18;104150;1258;139186;-76
2023/04/18 00:03:44;;;;;;;29.60;19.70;;;;;;;8.87;79.62;100890.95;104293;1260;110734;-76
2023/04/18 00:06:09;;;;;;;30.70;19.40;;;;;;;8.86;79.70;100888.02;104256;1258;108762;-75
2023/04/18 00:08:33;;;;;;;29.40;18.90;;;;;;;8.86;79.73;100887.84;104143;1261;139333;-75
2023/04/18 00:10:56;;;;;;;28.70;19.30;;;;;;;8.85;79.71;100886.47;104251;1257;107643;-73
2023/04/18 00:13:20;;;;;;;29.00;18.50;;;;;;;8.84;79.80;100883.89;104135;1261;138595;-75
2023/04/18 00:15:45;;;;;;;30.30;18.70;;;;;;;8.82;79.91;100885.65;104270;1257;112287;-74
2023/04/18 00:18:09;;;;;;;28.60;19.40;;;;;;;8.84;80.02;100879.91;104248;1257;107634;-75
2023/04/18 00:20:32;;;;;;;29.60;19.10;;;;;;;8.85;79.86;100875.55;104160;1257;139105;-76
2023/04/18 00:22:59;;;;;;;29.80;18.50;;;;;;;8.84;79.90;100876.95;104263;1257;109887;-76
2023/04/18 00:25:43;;;;;;;28.00;19.00;;;;;;;8.86;79.90;100881.43;104163;1257;138476;-76
2023/04/18 00:28:09;;;;;;;29.80;18.60;;;;;;;8.86;79.95;100883.33;104315;1260;111607;-76
2023/04/18 00:30:33;;;;;;;26.00;18.50;;;;;;;8.85;79.86;100881.45;104205;1260;108314;-76
2023/04/18 00:32:56;;;;;;;27.80;18.00;;;;;;;8.83;79.84;100881.65;104146;1257;140201;-76
2023/04/18 00:35:20;;;;;;;27.40;17.70;;;;;;;8.83;79.85;100882.17;104252;1258;106138;-76
2023/04/18 00:37:44;;;;;;;26.50;18.00;;;;;;;8.82;79.97;100883.41;104112;1261;138597;-76
2023/04/18 00:40:09;;;;;;;28.40;18.00;;;;;;;8.81;79.94;100881.86;104280;1256;110434;-76
2023/04/18 00:42:35;;;;;;;27.60;17.60;;;;;;;8.80;79.95;100881.86;104241;1258;107218;-75
2023/04/18 00:45:03;;;;;;;23.70;17.30;;;;;;;8.78;79.87;100884.48;104176;1257;138505;-75
2023/04/18 00:47:26;;;;;;;26.60;18.10;;;;;;;8.76;79.95;100885.73;104290;1257;108397;-76
2023/04/18 00:49:53;;;;;;;25.60;16.80;;;;;;;8.75;80.04;100887.83;104094;1262;139311;-75
2023/04/18 00:52:18;;;;;;;24.80;16.70;;;;;;;8.73;80.11;100883.70;104294;1257;112085;-75
2023/04/18 00:54:46;;;;;;;24.60;17.50;;;;;;;8.72;80.20;100885.96;104240;1258;107990;-75
2023/04/18 00:57:10;;;;;;;25.70;17.40;;;;;;;8.70;80.15;100886.34;104196;1261;138385;-75
2023/04/18 00:59:34;;;;;;;29.10;17.60;;;;;;;8.68;80.30;100886.55;104229;1257;107054;-76
2023/04/18 01:02:07;;;;;;;24.80;16.70;;;;;;;8.69;80.36;100882.71;104126;1261;139081;-75
2023/04/18 01:04:42;;;;;;;27.30;16.80;;;;;;;8.68;80.29;100883.27;104273;1260;110360;-76
2023/04/18 01:07:07;;;;;;;26.00;17.20;;;;;;;8.65;80.29;100887.98;104102;1258;138623;-75
2023/04/18 01:09:31;;;;;;;25.70;16.60;;;;;;;8.65;80.47;100883.14;104283;1257;95853;-76
2023/04/18 01:11:55;;;;;;;23.90;16.90;;;;;;;8.63;80.36;100883.33;104291;1257;107385;-76
2023/04/18 01:14:19;;;;;;;25.80;16.90;;;;;;;8.62;80.55;100880.58;104145;1257;138584;-76
2023/04/18 01:16:42;;;;;;;26.30;17.10;;;;;;;8.63;80.50;100883.34;104251;1262;110247;-75
2023/04/18 01:19:10;;;;;;;26.60;17.70;;;;;;;8.62;80.56;100883.00;104118;1260;138846;-76
2023/04/18 01:21:35;;;;;;;23.60;16.70;;;;;;;8.61;80.54;100883.17;104254;1257;95965;-75
2023/04/18 01:24:18;;;;;;;27.00;17.50;;;;;;;8.58;80.65;100881.98;104255;1260;109017;-75
2023/04/18 01:26:46;;;;;;;25.60;18.00;;;;;;;8.57;80.64;100887.20;104179;1258;138430;-76
2023/04/18 01:29:15;;;;;;;29.10;17.60;;;;;;;8.58;80.77;100883.73;104303;1257;110895;-76
2023/04/18 01:31:40;;;;;;;24.70;16.70;;;;;;;8.58;80.88;100879.91;104108;1260;142425;-76
2023/04/18 01:34:24;;;;;;;26.50;17.80;;;;;;;8.57;80.85;100878.73;104264;1257;95957;-76
2023/04/18 01:36:50;;;;;;;26.00;18.00;;;;;;;8.56;80.82;100878.04;104267;1257;107608;-76
2023/04/18 01:39:14;;;;;;;29.50;18.10;;;;;;;8.57;80.92;100874.92;104089;1257;139047;-77
2023/04/18 01:41:38;;;;;;;25.20;17.00;;;;;;;8.56;80.97;100878.21;104296;1257;113150;-76
2023/04/18 01:44:22;;;;;;;26.40;18.50;;;;;;;8.54;80.97;100876.33;104095;1257;139271;-76
2023/04/18 01:46:45;;;;;;;24.30;17.20;;;;;;;8.54;81.06;100876.00;104257;1260;96124;-76
2023/04/18 01:49:11;;;;;;;;;;;;;;;8.54;80.99;100878.41;104165;1257;139138;-76
2023/04/18 01:51:54;;;;;;;27.60;17.80;;;;;;;8.53;81.09;100876.52;104257;1257;95941;-76
2023/04/18 01:54:20;;;;;;;;;;;;;;;8.53;81.14;100882.06;104280;1258;110513;-76
2023/04/18 01:56:43;;;;;;;28.10;18.20;;;;;;;8.54;81.20;100880.67;104194;1257;124554;-76
2023/04/18 01:59:07;;;;;;;28.10;17.80;;;;;;;8.55;81.15;100880.48;104230;1257;97181;-76
2023/04/18 02:01:51;;;;;;;27.10;17.60;;;;;;;8.54;81.29;100875.82;104103;1257;138512;-76
2023/04/18 02:04:15;;;;;;;27.70;17.90;;;;;;;8.54;81.25;100875.65;104259;1259;95900;-76
2023/04/18 02:06:48;;;;;;;29.30;18.60;;;;;;;8.53;81.33;100879.13;104233;1260;111218;-76
2023/04/18 02:09:14;;;;;;;;;;;;;;;8.54;81.32;100874.60;104133;1257;138324;-76
2023/04/18 02:11:40;;;;;;;27.50;18.10;;;;;;;8.54;81.34;100873.58;104294;1257;96016;-76
2023/04/18 02:14:07;;;;;;;30.80;18.40;;;;;;;8.54;81.46;100869.06;104165;1260;138406;-76
2023/04/18 02:16:33;;;;;;;27.60;18.70;;;;;;;8.55;81.37;100869.73;104259;1257;96056;-75
2023/04/18 02:19:17;;;;;;;28.70;18.60;;;;;;;8.54;81.38;100865.42;104190;1257;139904;-75
2023/04/18 02:22:01;;;;;;;26.00;18.90;;;;;;;8.54;81.49;100866.29;104234;1257;107189;-75
2023/04/18 02:24:33;;;;;;;26.00;18.10;;;;;;;8.55;81.49;100861.77;104289;1257;96082;-76
2023/04/18 02:26:59;;;;;;;25.30;17.60;;;;;;;8.54;81.58;100862.13;104165;1259;138771;-75
2023/04/18 02:29:23;;;;;;;29.30;18.70;;;;;;;8.53;81.54;100862.83;104255;1257;96125;-75
2023/04/18 02:31:46;;;;;;;29.60;19.60;;;;;;;8.54;81.67;100863.86;104178;1257;139129;-76
2023/04/18 02:34:11;;;;;;;26.60;19.20;;;;;;;8.53;81.57;100864.40;104281;1257;107839;-76
2023/04/18 02:36:36;;;;;;;29.30;19.70;;;;;;;8.55;81.75;100866.27;104287;1257;96867;-76
2023/04/18 02:38:59;;;;;;;31.00;20.30;;;;;;;8.57;81.82;100865.73;104169;1257;138399;-75
2023/04/18 02:41:23;;;;;;;31.60;20.20;;;;;;;8.58;81.74;100865.36;104226;1257;96134;-75
2023/04/18 02:43:47;;;;;;;26.80;18.40;;;;;;;8.58;81.66;100865.35;104138;1257;138419;-75
2023/04/18 02:46:11;;;;;;;26.60;20.20;;;;;;;8.57;81.63;100866.93;104204;1257;108255;-75
2023/04/18 02:48:35;;;;;;;28.80;20.00;;;;;;;8.58;81.80;100870.91;104275;1257;96235;-75
2023/04/18 02:51:02;;;;;;;30.80;20.70;;;;;;;8.58;81.87;100868.83;104104;1257;138305;-76
2023/04/18 02:53:47;;;;;;;31.70;19.30;;;;;;;8.55;81.85;100869.57;104248;1257;95827;-76
2023/04/18 02:56:11;;;;;;;32.20;19.90;;;;;;;8.55;81.97;100870.27;104076;1257;138607;-75
2023/04/18 02:58:58;;;;;;;28.90;19.20;;;;;;;8.56;82.15;100871.80;104202;1257;106427;-76
2023/04/18 03:01:40;;;;;;;29.40;20.50;;;;;;;8.57;82.19;100872.66;104188;1260;139221;-75
2023/04/18 03:04:07;;;;;;;30.30;20.20;;;;;;;8.56;82.32;100871.81;104196;1260;107848;-74
2023/04/18 03:06:34;;;;;;;29.80;20.50;;;;;;;8.54;82.15;100873.73;104227;1257;96180;-74
2023/04/18 03:08:58;;;;;;;31.70;20.90;;;;;;;8.54;82.29;100872.53;104042;1261;139356;-74
2023/04/18 03:11:24;;;;;;;29.00;20.40;;;;;;;8.53;82.25;100871.50;104183;1262;107515;-75
2023/04/18 03:13:52;;;;;;;28.10;20.60;;;;;;;8.54;82.45;100877.21;104149;1260;138844;-74
2023/04/18 03:16:16;;;;;;;30.50;21.20;;;;;;;8.54;82.52;100875.48;104189;1260;107963;-75
2023/04/18 03:18:40;;;;;;;31.30;21.20;;;;;;;8.54;82.39;100875.98;104198;1257;95878;-75
2023/04/18 03:21:04;;;;;;;30.70;21.00;;;;;;;8.54;82.60;100874.09;104182;1257;138230;-75
2023/04/18 03:23:48;;;;;;;29.30;21.20;;;;;;;8.53;82.60;100874.96;104239;1258;106732;-75
2023/04/18 03:26:13;;;;;;;;;;;;;;;8.52;82.69;100877.58;104173;1257;138518;-75
2023/04/18 03:28:57;;;;;;;29.70;21.10;;;;;;;8.50;82.69;100880.91;104213;1258;109067;-74
2023/04/18 03:31:41;;;;;;;31.40;21.30;;;;;;;8.46;82.68;100882.69;104103;1257;140038;-73
2023/04/18 03:34:05;;;;;;;31.40;22.70;;;;;;;8.46;82.84;100880.96;104231;1257;110855;-74
2023/04/18 03:36:30;;;;;;;30.80;21.60;;;;;;;8.48;82.89;100882.31;104188;1258;107550;-74
2023/04/18 03:38:54;;;;;;;29.00;21.30;;;;;;;8.48;82.81;100883.35;104026;1259;138684;-74
2023/04/18 03:41:18;;;;;;;30.30;20.80;;;;;;;8.48;82.79;100884.58;104227;1257;107659;-74
2023/04/18 03:43:44;;;;;;;33.40;22.10;;;;;;;8.49;82.63;100886.13;104138;1257;139672;-74
2023/04/18 03:46:10;;;;;;;30.20;22.00;;;;;;;8.49;82.72;100884.39;104306;1256;110377;-74
2023/04/18 03:48:36;;;;;;;32.60;21.70;;;;;;;8.50;82.72;100890.95;104252;1257;107575;-74
2023/04/18 03:51:19;;;;;;;29.70;21.60;;;;;;;8.49;82.71;100886.83;104290;1257;96095;-74
2023/04/18 03:53:55;;;;;;;;;;;;;;;8.47;82.54;100889.44;104276;1257;107176;-74
2023/04/18 03:56:19;;;;;;;31.60;21.70;;;;;;;8.46;82.48;100893.27;104140;1257;125723;-75
2023/04/18 03:59:03;;;;;;;29.80;20.50;;;;;;;8.46;82.62;100892.05;104257;1257;113298;-75
2023/04/18 04:01:30;;;;;;;34.40;20.80;;;;;;;8.44;82.56;100888.95;104123;1257;139229;-75
2023/04/18 04:04:02;;;;;;;31.40;21.10;;;;;;;8.46;82.70;100892.75;104258;1257;95984;-75
2023/04/18 04:06:47;;;;;;;28.60;20.80;;;;;;;8.49;82.69;100887.34;104243;1257;110660;-75
2023/04/18 04:09:13;;;;;;;28.70;20.00;;;;;;;8.52;82.68;100886.77;104133;1257;138692;-75
2023/04/18 04:11:40;;;;;;;28.50;20.20;;;;;;;8.54;82.63;100889.52;104262;1259;110181;-74
2023/04/18 04:14:16;;;;;;;30.50;20.70;;;;;;;8.57;82.55;100892.94;104113;1257;139577;-74
2023/04/18 04:16:53;;;;;;;28.40;19.50;;;;;;;8.59;82.53;100889.27;104205;1257;96858;-73
2023/04/18 04:19:30;;;;;;;29.10;19.40;;;;;;;8.60;82.59;100891.69;104153;1257;138534;-74
2023/04/18 04:22:13;;;;;;;25.50;18.90;;;;;;;8.63;82.39;100891.31;104201;1259;96191;-74
2023/04/18 04:24:38;;;;;;;26.10;19.00;;;;;;;8.65;82.30;100893.02;104260;1257;111148;-74
2023/04/18 04:27:02;;;;;;;26.80;18.90;;;;;;;8.67;82.21;100896.45;104104;1258;138621;-74
2023/04/18 04:29:48;;;;;;;28.10;20.30;;;;;;;8.70;82.13;100899.17;104276;1257;96431;-75
2023/04/18 04:32:12;;;;;;;26.20;19.10;;;;;;;8.72;81.97;100898.98;104108;1258;138634;-74
2023/04/18 04:34:40;;;;;;;26.00;19.00;;;;;;;8.73;81.73;100902.77;104242;1258;95769;-74
2023/04/18 04:37:17;;;;;;;28.10;19.80;;;;;;;8.73;81.84;100902.41;104198;1257;139451;-75
2023/04/18 04:40:01;;;;;;;27.30;18.70;;;;;;;8.76;81.76;100905.84;104230;1257;110135;-75
2023/04/18 04:42:44;;;;;;;28.90;19.80;;;;;;;8.78;81.68;100902.34;104260;1257;96284;-75
2023/04/18 04:45:12;;;;;;;28.90;19.50;;;;;;;8.78;81.58;100904.06;104127;1257;138894;-74
2023/04/18 04:47:36;;;;;;;29.20;18.50;;;;;;;8.79;81.50;100907.70;104204;1257;96075;-75
2023/04/18 04:50:00;;;;;;;27.50;18.30;;;;;;;8.79;81.43;100904.75;104145;1257;138872;-75
2023/04/18 04:52:23;;;;;;;27.20;19.70;;;;;;;8.82;81.33;100913.06;104249;1257;107578;-75
2023/04/18 04:54:47;;;;;;;28.30;18.80;;;;;;;8.84;81.34;100915.98;104219;1258;96263;-74
2023/04/18 04:57:11;;;;;;;28.00;19.60;;;;;;;8.87;81.21;100912.80;104133;1262;140811;-75
2023/04/18 04:59:36;;;;;;;26.30;19.50;;;;;;;8.91;81.16;100915.87;104154;1259;96015;-73
2023/04/18 05:02:01;;;;;;;27.50;19.10;;;;;;;8.94;81.06;100915.63;104033;1257;138328;-72
2023/04/18 05:04:26;;;;;;;27.50;19.00;;;;;;;8.99;81.03;100918.70;104136;1259;107201;-72
2023/04/18 05:06:50;;;;;;;29.20;20.00;;;;;;;9.02;80.80;100920.02;104258;1258;95927;-71
2023/04/18 05:09:13;;;;;;;26.60;18.40;;;;;;;9.06;80.60;100919.98;104154;1258;138112;-73
2023/04/18 05:11:37;;;;;;;27.60;19.70;;;;;;;9.09;80.46;100920.10;104240;1258;96026;-71
2023/04/18 05:14:00;;;;;;;28.90;18.90;;;;;;;9.11;80.36;100921.98;104169;1258;138281;-74
2023/04/18 05:16:24;;;;;;;27.80;18.80;;;;;;;9.15;80.35;100921.23;104205;1258;108115;-73
2023/04/18 05:18:48;;;;;;;29.70;19.40;;;;;;;9.19;80.28;100921.17;104020;1260;253793;-72
2023/04/18 05:21:11;;;;;;;26.90;18.60;;;;;;;9.24;80.28;100922.29;104126;1259;138534;-71
2023/04/18 05:23:35;;;;;;;26.60;18.70;;;;;;;9.31;80.13;100922.00;104203;1258;96115;-73
2023/04/18 05:25:59;;;;;;;26.90;18.40;;;;;;;9.39;79.98;100919.98;104135;1258;139289;-71
2023/04/18 05:28:25;;;;;;;27.50;17.90;;;;;;;9.49;79.79;100922.39;104205;1259;107338;-71
2023/04/18 05:30:59;;;;;;;25.60;18.70;;;;;;;9.59;79.53;100923.10;104257;1259;96220;-73
2023/04/18 05:33:23;;;;;;;24.50;18.00;;;;;;;9.70;79.42;100925.52;104242;1257;107628;-72
2023/04/18 05:35:47;;;;;;;27.40;17.90;;;;;;;9.84;79.18;100927.52;104246;1257;95990;-73
2023/04/18 05:38:10;;;;;;;26.70;18.00;;;;;;;10.01;78.98;100925.30;104161;1257;139181;-74
2023/04/18 05:40:34;;;;;;;29.50;18.10;;;;;;;10.22;78.51;100921.27;104243;1258;108585;-74
2023/04/18 05:42:58;;;;;;;25.40;17.30;;;;;;;10.42;77.88;100917.38;104261;1257;96245;-74
2023/04/18 05:45:21;;;;;;;26.00;17.50;;;;;;;10.59;77.37;100917.19;104138;1256;245657;-71
2023/04/18 05:47:45;;;;;;;25.60;18.10;;;;;;;10.82;77.20;100916.17;104219;1257;96095;-74
2023/04/18 05:50:10;;;;;;;23.90;17.00;;;;;;;11.04;76.89;100918.79;104178;1258;139240;-73
2023/04/18 05:52:33;;;;;;;21.10;16.20;;;;;;;11.22;76.36;100915.58;104224;1257;108091;-72
2023/04/18 05:54:57;;;;;;;22.50;17.10;;;;;;;11.38;75.96;100915.01;104301;1257;96085;-71
2023/04/18 05:57:20;;;;;;;22.70;16.80;;;;;;;11.50;75.07;100919.42;104147;1257;138536;-70
2023/04/18 05:59:44;;;;;;;22.30;16.60;;;;;;;11.51;74.56;100917.66;104255;1258;95668;-71
2023/04/18 06:02:12;;;;;;;24.10;16.60;;;;;;;11.51;74.37;100918.02;104147;1257;138627;-73
2023/04/18 06:04:47;;;;;;;25.30;17.30;;;;;;;11.51;74.00;100922.02;104255;1257;105544;-71
2023/04/18 06:07:11;;;;;;;21.70;16.10;;;;;;;11.51;73.80;100924.98;104194;1256;139395;-71
2023/04/18 06:09:34;;;;;;;23.20;16.80;;;;;;;11.56;73.55;100922.59;104254;1257;108023;-72
2023/04/18 06:11:58;;;;;;;22.90;16.30;;;;;;;11.64;73.38;100924.09;104184;1257;95686;-72
2023/04/18 06:14:42;;;;;;;20.80;16.50;;;;;;;11.76;73.11;100925.38;104149;1257;138693;-72
2023/04/18 06:17:09;;;;;;;22.70;16.50;;;;;;;11.83;73.07;100927.30;104245;1258;108124;-71
2023/04/18 06:19:32;;;;;;;22.70;16.90;;;;;;;11.87;72.52;100923.02;104109;1257;139679;-71
2023/04/18 06:21:56;;;;;;;24.10;16.90;;;;;;;11.91;72.26;100927.45;104225;1260;107885;-70
2023/04/18 06:24:19;;;;;;;24.20;17.20;;;;;;;11.90;72.09;100926.59;104255;1258;96103;-70
2023/04/18 06:26:50;;;;;;;24.00;17.10;;;;;;;11.92;71.88;100926.20;104162;1257;139231;-71
2023/04/18 06:29:16;;;;;;;23.40;15.40;;;;;;;11.96;72.05;100926.25;104220;1257;107983;-70
2023/04/18 06:31:44;;;;;;;21.20;15.70;;;;;;;12.24;72.57;100926.88;104133;1257;140855;-72
2023/04/18 06:34:07;;;;;;;23.40;15.80;;;;;;;12.86;72.00;100925.40;104256;1257;109311;-71
2023/04/18 06:36:31;;;;;;;19.70;15.30;;;;;;;13.47;70.70;100925.56;104236;1257;96049;-72
2023/04/18 06:38:54;;;;;;;21.30;14.80;;;;;;;14.05;69.71;100925.64;104138;1257;139446;-73
2023/04/18 06:41:18;;;;;;;22.50;15.60;;;;;;;14.32;68.27;100922.56;104225;1257;107136;-74
2023/04/18 06:43:41;;;;;;;20.60;15.00;;;;;;;14.19;67.22;100925.00;104097;1257;138673;-74
2023/04/18 06:46:22;;;;;;;21.90;15.50;;;;;;;13.94;67.10;100933.55;104246;1257;106988;-75
2023/04/18 06:48:46;;;;;;;21.70;15.20;;;;;;;13.77;67.13;100932.24;104275;1257;95841;-74
2023/04/18 06:51:09;;;;;;;20.10;15.80;;;;;;;13.55;66.96;100934.20;104146;1257;138406;-79
2023/04/18 06:53:33;;;;;;;24.10;15.60;;;;;;;13.33;66.88;100938.59;104245;1257;106177;-76
2023/04/18 06:56:06;;;;;;;21.40;15.20;;;;;;;13.12;67.03;100937.86;104161;1257;138267;-75
2023/04/18 06:58:29;;;;;;;17.10;14.80;;;;;;;12.92;66.96;100930.27;104242;1257;107589;-73
2023/04/18 07:00:53;;;;;;;20.90;15.30;;;;;;;12.73;67.07;100935.75;104278;1257;96467;-76
2023/04/18 07:03:16;;;;;;;23.70;16.10;;;;;;;12.54;67.39;100940.85;104152;1257;138472;-74
2023/04/18 07:05:41;;;;;;;20.30;15.70;;;;;;;12.38;67.81;100935.04;104235;1257;107784;-74
2023/04/18 07:08:04;;;;;;;23.00;16.00;;;;;;;12.24;67.85;100938.56;104146;1258;139344;-74
2023/04/18 07:10:30;;;;;;;25.90;17.20;;;;;;;12.08;68.08;100941.44;104259;1257;106852;-75
2023/04/18 07:12:54;;;;;;;23.20;16.60;;;;;;;11.93;68.40;100943.23;104259;1257;96053;-73
2023/04/18 07:15:17;;;;;;;25.20;17.00;;;;;;;11.82;68.59;100943.34;104147;1257;139161;-74
2023/04/18 07:17:41;;;;;;;24.00;16.70;;;;;;;11.75;68.98;100943.87;104235;1257;107752;-73
2023/04/18 07:20:07;;;;;;;24.60;17.10;;;;;;;11.69;69.06;100938.98;104148;1257;142871;-74
2023/04/18 07:22:31;;;;;;;22.70;16.40;;;;;;;11.64;69.17;100943.08;104214;1257;106996;-72
2023/04/18 07:24:54;;;;;;;26.50;17.40;;;;;;;11.62;69.52;100942.27;104238;1257;95864;-74
2023/04/18 07:27:18;;;;;;;22.10;16.80;;;;;;;11.64;69.78;100945.52;104163;1259;138480;-74
2023/04/18 07:29:41;;;;;;;22.40;16.90;;;;;;;11.71;69.87;100944.16;104189;1257;107769;-72
2023/04/18 07:32:05;;;;;;;23.70;17.70;;;;;;;11.78;69.81;100939.79;104107;1257;138818;-76
2023/04/18 07:34:32;;;;;;;27.00;17.50;;;;;;;11.86;69.84;100938.38;104257;1257;107753;-76
2023/04/18 07:36:56;;;;;;;23.00;17.30;;;;;;;11.98;69.91;100936.84;104229;1257;95535;-72
2023/04/18 07:39:20;;;;;;;24.20;16.00;;;;;;;12.13;69.44;100938.52;104135;1258;138514;-72
2023/04/18 07:41:43;;;;;;;22.50;15.70;;;;;;;12.26;69.26;100937.64;104181;1257;107510;-73
2023/04/18 07:44:07;;;;;;;25.40;16.20;;;;;;;12.45;69.13;100938.13;104163;1258;139056;-73
2023/04/18 07:46:32;;;;;;;21.90;15.80;;;;;;;12.65;68.58;100937.52;104227;1257;107147;-74
2023/04/18 07:48:56;;;;;;;24.60;15.80;;;;;;;12.81;68.10;100936.21;104210;1257;97119;-71
2023/04/18 07:51:19;;;;;;;23.20;15.40;;;;;;;12.96;67.99;100938.00;104151;1258;140057;-73
2023/04/18 07:53:43;;;;;;;22.70;15.80;;;;;;;13.17;67.78;100938.39;104204;1257;108627;-73
2023/04/18 07:56:07;;;;;;;24.60;15.70;;;;;;;13.53;67.80;100941.27;104143;1257;139271;-73
2023/04/18 07:58:31;;;;;;;22.50;14.50;;;;;;;13.97;67.40;100941.83;104257;1257;108183;-72
2023/04/18 08:00:54;;;;;;;21.70;15.10;;;;;;;14.47;66.88;100940.42;104304;1257;96059;-73
2023/04/18 08:03:18;;;;;;;26.00;15.90;;;;;;;14.90;66.12;100936.49;104184;1258;138924;-72
2023/04/18 08:05:42;;;;;;;20.60;15.30;;;;;;;15.26;64.83;100941.02;104212;1257;107481;-74
2023/04/18 08:08:07;;;;;;;21.50;14.70;;;;;;;15.57;64.05;100939.95;104152;1257;138232;-73
2023/04/18 08:10:31;;;;;;;22.90;14.40;;;;;;;15.94;63.19;100939.22;104256;1257;108124;-73
2023/04/18 08:12:54;;;;;;;20.30;14.60;;;;;;;16.33;62.46;100935.41;104243;1258;95920;-73
2023/04/18 08:15:18;;;;;;;17.70;13.60;;;;;;;16.78;61.99;100931.05;104133;1257;138670;-72
2023/04/18 08:17:43;;;;;;;22.40;14.40;;;;;;;17.62;60.70;100934.05;104211;1257;108674;-72
2023/04/18 08:20:08;;;;;;;19.20;14.10;;;;;;;18.41;59.68;100929.20;104156;1257;138355;-73
2023/04/18 08:22:32;;;;;;;20.30;13.70;;;;;;;19.23;58.94;100927.13;104228;1257;107392;-74
2023/04/18 08:24:55;;;;;;;23.20;13.60;;;;;;;20.18;57.50;100926.81;104280;1258;95948;-77
2023/04/18 08:27:29;;;;;;;16.90;13.30;;;;;;;20.99;55.91;100923.10;104289;1257;112124;-74
2023/04/18 08:29:53;;;;;;;17.90;13.10;;;;;;;21.69;53.96;100921.66;104184;1256;108186;-75
2023/04/18 08:32:16;;;;;;;16.20;12.30;;;;;;;22.61;52.88;100913.67;104119;1257;138301;-76
2023/04/18 08:34:40;;;;;;;16.80;11.90;;;;;;;23.34;50.30;100914.16;104242;1257;107627;-73
2023/04/18 08:37:04;;;;;;;19.90;12.60;;;;;;;24.13;49.68;100917.56;104291;1258;95931;-71
2023/04/18 08:39:28;;;;;;;13.50;10.90;;;;;;;25.02;48.09;100910.37;104295;1257;111776;-72
2023/04/18 08:41:58;;;;;;;17.20;11.30;;;;;;;25.80;46.32;100912.08;104271;1257;108162;-71
2023/04/18 08:44:22;;;;;;;14.80;11.50;;;;;;;26.41;43.90;100907.12;104160;1257;138931;-71
2023/04/18 08:46:46;;;;;;;15.00;11.70;;;;;;;26.72;43.97;100909.95;104220;1257;108069;-71
2023/04/18 08:49:09;;;;;;;14.80;11.20;;;;;;;27.37;43.65;100906.64;104116;1256;138828;-71
2023/04/18 08:51:36;;;;;;;15.90;12.50;;;;;;;28.03;42.45;100905.14;104290;1257;111007;-72
2023/04/18 08:54:03;;;;;;;18.80;11.60;;;;;;;28.60;41.87;100898.20;104245;1257;107279;-71
2023/04/18 08:56:27;;;;;;;15.90;11.30;;;;;;;29.18;40.64;100895.59;104149;1257;138670;-72
2023/04/18 08:58:51;;;;;;;14.40;10.90;;;;;;;29.48;38.89;100896.98;104255;1257;107615;-72
2023/04/18 09:01:16;;;;;;;15.50;11.20;;;;;;;29.59;38.42;100896.96;104127;1257;139819;-73
2023/04/18 09:03:41;;;;;;;14.40;11.80;;;;;;;29.42;37.77;100891.88;104222;1257;110982;-71
2023/04/18 09:06:11;;;;;;;17.20;11.20;;;;;;;28.86;37.22;100894.40;104259;1257;109299;-71
2023/04/18 09:08:34;;;;;;;16.60;11.30;;;;;;;28.05;37.35;100893.89;104157;1257;138365;-82
2023/04/18 09:11:24;;;;;;;14.90;10.60;;;;;;;27.23;37.47;100888.33;104245;1257;108290;-75
2023/04/18 09:13:49;;;;;;;13.80;10.60;;;;;;;26.44;38.27;100889.42;104157;1257;138361;-74
2023/04/18 09:16:13;;;;;;;18.30;11.20;;;;;;;26.37;38.85;100887.50;104267;1258;111272;-72
2023/04/18 09:18:37;;;;;;;14.70;11.70;;;;;;;26.68;38.14;100886.21;104206;1257;107290;-74
2023/04/18 09:21:18;;;;;;;15.70;11.50;;;;;;;26.73;37.94;100886.11;104166;1257;139842;-73
2023/04/18 09:23:41;;;;;;;14.30;10.40;;;;;;;26.90;37.97;100877.58;104255;1257;107059;-73
2023/04/18 09:26:05;;;;;;;14.40;11.40;;;;;;;26.99;37.66;100876.77;104163;1258;141142;-73
2023/04/18 09:28:29;;;;;;;13.70;11.10;;;;;;;26.73;37.17;100880.92;104252;1257;112014;-72
2023/04/18 09:30:54;;;;;;;15.80;10.80;;;;;;;26.34;37.15;100883.10;104199;1258;108789;-73
2023/04/18 09:33:27;;;;;;;16.90;11.50;;;;;;;25.88;37.09;100884.14;104142;1257;140250;-73
2023/04/18 09:35:50;;;;;;;14.20;11.00;;;;;;;25.74;37.66;100886.73;104242;1257;108280;-71
2023/04/18 09:38:14;;;;;;;16.50;11.10;;;;;;;26.13;37.77;100879.05;104147;1257;138953;-71
2023/04/18 09:40:37;;;;;;;15.80;9.90;;;;;;;26.56;37.95;100879.06;104259;1258;110791;-72
2023/04/18 09:43:16;;;;;;;13.90;10.30;;;;;;;26.74;37.16;100877.48;104232;1257;108072;-72
2023/04/18 09:45:40;;;;;;;15.20;9.60;;;;;;;26.46;36.42;100878.92;104240;1258;96830;-73
2023/04/18 09:48:03;;;;;;;15.90;9.10;;;;;;;26.20;36.76;100877.23;104202;1258;107650;-71
2023/04/18 09:50:27;;;;;;;14.40;8.90;;;;;;;26.38;37.28;100877.65;104163;1257;138284;-74
2023/04/18 09:52:51;;;;;;;14.70;9.90;;;;;;;26.65;36.77;100871.13;104300;1257;111006;-74
2023/04/18 09:55:16;;;;;;;16.20;9.00;;;;;;;26.50;36.33;100878.02;104140;1257;138600;-70
2023/04/18 09:57:43;;;;;;;11.20;9.10;;;;;;;26.61;37.12;100871.88;104296;1257;95884;-70
2023/04/18 10:00:15;;;;;;;12.80;9.30;;;;;;;26.86;36.39;100875.08;104273;1258;108093;-70
2023/04/18 10:02:47;;;;;;;13.20;9.50;;;;;;;26.45;35.61;100871.71;104176;1257;138075;-71
2023/04/18 10:05:12;;;;;;;14.10;9.90;;;;;;;25.96;35.92;100876.50;104288;1258;110955;-70
2023/04/18 10:07:37;;;;;;;17.10;11.20;;;;;;;25.38;36.07;100881.24;104134;1257;138370;-71
2023/04/18 10:10:00;;;;;;;16.20;13.40;;;;;;;24.78;36.01;100879.68;104248;1258;95877;-72
2023/04/18 10:12:24;;;;;;;12.90;10.10;;;;;;;24.21;36.72;100873.20;104274;1257;107927;-71
2023/04/18 10:14:48;;;;;;;13.50;9.80;;;;;;;23.71;37.29;100876.80;104192;1258;138138;-71
2023/04/18 10:17:13;;;;;;;14.00;10.20;;;;;;;23.11;37.49;100871.41;104285;1257;112532;-71
2023/04/18 10:19:40;;;;;;;13.10;9.70;;;;;;;22.43;38.32;100871.73;104148;1257;138622;-72
2023/04/18 10:22:03;;;;;;;16.90;11.30;;;;;;;21.89;38.85;100873.77;104295;1257;95878;-71
2023/04/18 10:24:51;;;;;;;16.80;11.80;;;;;;;21.38;39.46;100876.34;104316;1257;106987;-71
2023/04/18 10:27:15;;;;;;;16.80;11.70;;;;;;;20.72;39.98;100873.80;104151;1257;138789;-72
2023/04/18 10:29:56;;;;;;;14.30;11.70;;;;;;;20.30;40.87;100874.65;104258;1258;111308;-72
2023/04/18 10:32:22;;;;;;;14.70;11.60;;;;;;;19.94;41.72;100879.20;104110;1257;139192;-73
2023/04/18 10:34:46;;;;;;;;;;;;;;;19.72;42.46;100880.23;104290;1257;96037;-72
2023/04/18 10:37:12;;;;;;;19.20;11.60;;;;;;;19.41;42.39;100870.36;104221;1258;106919;-72
2023/04/18 10:39:49;;;;;;;19.90;13.00;;;;;;;19.15;42.96;100876.48;104269;1258;96009;-71
2023/04/18 10:42:13;;;;;;;17.10;11.80;;;;;;;18.87;43.53;100874.37;104288;1257;110361;-71
2023/04/18 10:44:36;;;;;;;19.50;12.60;;;;;;;18.75;44.05;100871.91;104155;1260;138857;-71
2023/04/18 10:47:21;;;;;;;15.30;12.10;;;;;;;18.71;44.50;100866.84;104285;1257;95960;-71
2023/04/18 10:49:54;;;;;;;20.30;12.30;;;;;;;18.77;44.51;100869.31;104192;1256;138357;-71
2023/04/18 10:52:17;;;;;;;14.10;11.20;;;;;;;19.04;44.93;100862.99;104291;1257;96082;-71
2023/04/18 10:54:50;;;;;;;16.90;11.90;;;;;;;19.30;44.91;100859.73;104309;1258;111222;-72
2023/04/18 10:57:14;;;;;;;16.70;11.50;;;;;;;19.36;44.51;100857.45;104106;1260;138350;-71
2023/04/18 10:59:38;;;;;;;16.30;11.50;;;;;;;19.25;44.37;100860.02;104296;1258;95899;-72
2023/04/18 11:02:13;;;;;;;16.20;11.50;;;;;;;19.05;44.54;100857.67;104190;1258;138105;-71